sensor_id;sensor_type;location;lat;lon;timestamp;temperature;humidity
12111;DHT22;6119;52.372;8.990;2023-06-26T00:02:44;24.30;99.90
12111;DHT22;6119;52.372;8.990;2023-06-26T00:05:31;24.30;99.90
12111;DHT22;6119;52.372;8.990;2023-06-26T00:08:18;24.30;99.90
12111;DHT22;6119;52.372;8.990;2023-06-26T00:11:04;24.20;99.90
12111;DHT22;6119;52.372;8.990;2023-06-26T00:13:51;23.70;99.90
12111;DHT22;6119;52.372;8.990;2023-06-26T00:16:39;24.10;99.90
12111;DHT22;6119;52.372;8.990;2023-06-26T00:19:27;24.10;99.90
12111;DHT22;6119;52.372;8.990;2023-06-26T00:22:13;24.00;99.90
12111;DHT22;6119;52.372;8.990;2023-06-26T00:25:00;24.00;99.90
12111;DHT22;6119;52.372;8.990;2023-06-26T00:27:48;24.00;99.90
12111;DHT22;6119;52.372;8.990;2023-06-26T00:30:35;23.90;99.90
12111;DHT22;6119;52.372;8.990;2023-06-26T00:33:23;23.90;99.90
12111;DHT22;6119;52.372;8.990;2023-06-26T00:36:10;23.90;99.90
12111;DHT22;6119;52.372;8.990;2023-06-26T00:38:56;23.90;99.90
12111;DHT22;6119;52.372;8.990;2023-06-26T00:41:43;23.80;99.90
12111;DHT22;6119;52.372;8.990;2023-06-26T00:44:29;23.80;99.90
12111;DHT22;6119;52.372;8.990;2023-06-26T00:47:16;23.90;99.90
12111;DHT22;6119;52.372;8.990;2023-06-26T00:50:06;23.80;99.90
12111;DHT22;6119;52.372;8.990;2023-06-26T00:52:53;23.80;99.90
12111;DHT22;6119;52.372;8.990;2023-06-26T00:55:46;23.90;99.90
12111;DHT22;6119;52.372;8.990;2023-06-26T00:58:33;23.80;99.90
12111;DHT22;6119;52.372;8.990;2023-06-26T01:01:19;23.80;99.90
12111;DHT22;6119;52.372;8.990;2023-06-26T01:04:07;23.70;99.90
12111;DHT22;6119;52.372;8.990;2023-06-26T01:07:05;23.70;99.90
12111;DHT22;6119;52.372;8.990;2023-06-26T01:09:53;23.70;99.90
12111;DHT22;6119;52.372;8.990;2023-06-26T01:12:39;23.70;99.90
12111;DHT22;6119;52.372;8.990;2023-06-26T01:15:26;23.70;99.90
12111;DHT22;6119;52.372;8.990;2023-06-26T01:18:13;23.70;99.90
12111;DHT22;6119;52.372;8.990;2023-06-26T01:21:01;23.70;99.90
12111;DHT22;6119;52.372;8.990;2023-06-26T01:24:01;23.70;99.90
12111;DHT22;6119;52.372;8.990;2023-06-26T01:26:52;23.60;99.90
12111;DHT22;6119;52.372;8.990;2023-06-26T01:29:39;23.70;99.90
12111;DHT22;6119;52.372;8.990;2023-06-26T01:32:26;23.70;99.90
12111;DHT22;6119;52.372;8.990;2023-06-26T01:35:15;23.70;99.90
12111;DHT22;6119;52.372;8.990;2023-06-26T01:38:12;23.70;99.90
12111;DHT22;6119;52.372;8.990;2023-06-26T01:40:59;23.80;99.90
12111;DHT22;6119;52.372;8.990;2023-06-26T01:43:58;23.80;99.90
12111;DHT22;6119;52.372;8.990;2023-06-26T01:46:56;23.80;99.90
12111;DHT22;6119;52.372;8.990;2023-06-26T01:49:47;23.90;99.90
12111;DHT22;6119;52.372;8.990;2023-06-26T01:52:41;23.80;99.90
12111;DHT22;6119;52.372;8.990;2023-06-26T01:55:32;23.90;99.90
12111;DHT22;6119;52.372;8.990;2023-06-26T01:58:24;23.90;99.90
12111;DHT22;6119;52.372;8.990;2023-06-26T02:01:12;23.90;99.90
12111;DHT22;6119;52.372;8.990;2023-06-26T02:03:59;23.90;99.90
12111;DHT22;6119;52.372;8.990;2023-06-26T02:06:46;23.80;99.90
12111;DHT22;6119;52.372;8.990;2023-06-26T02:09:33;23.90;99.90
12111;DHT22;6119;52.372;8.990;2023-06-26T02:12:19;23.90;99.90
12111;DHT22;6119;52.372;8.990;2023-06-26T02:15:07;23.90;99.90
12111;DHT22;6119;52.372;8.990;2023-06-26T02:17:55;23.90;99.90
12111;DHT22;6119;52.372;8.990;2023-06-26T02:20:42;23.90;99.90
12111;DHT22;6119;52.372;8.990;2023-06-26T02:23:28;23.90;99.90
12111;DHT22;6119;52.372;8.990;2023-06-26T02:26:15;23.90;99.90
12111;DHT22;6119;52.372;8.990;2023-06-26T02:29:02;23.90;99.90
12111;DHT22;6119;52.372;8.990;2023-06-26T02:31:48;23.90;99.90
12111;DHT22;6119;52.372;8.990;2023-06-26T02:34:36;23.90;99.90
12111;DHT22;6119;52.372;8.990;2023-06-26T02:37:23;23.90;99.90
12111;DHT22;6119;52.372;8.990;2023-06-26T02:40:10;23.80;99.90
12111;DHT22;6119;52.372;8.990;2023-06-26T02:42:57;23.80;99.90
12111;DHT22;6119;52.372;8.990;2023-06-26T02:45:43;23.80;99.90
12111;DHT22;6119;52.372;8.990;2023-06-26T02:48:30;23.70;99.90
12111;DHT22;6119;52.372;8.990;2023-06-26T02:51:18;23.70;99.90
12111;DHT22;6119;52.372;8.990;2023-06-26T02:54:05;23.70;99.90
12111;DHT22;6119;52.372;8.990;2023-06-26T02:56:51;23.70;99.90
12111;DHT22;6119;52.372;8.990;2023-06-26T02:59:37;23.60;99.90
12111;DHT22;6119;52.372;8.990;2023-06-26T03:02:24;23.70;99.90
12111;DHT22;6119;52.372;8.990;2023-06-26T03:05:11;23.60;99.90
12111;DHT22;6119;52.372;8.990;2023-06-26T03:08:00;23.70;99.90
12111;DHT22;6119;52.372;8.990;2023-06-26T03:10:46;23.70;99.90
12111;DHT22;6119;52.372;8.990;2023-06-26T03:13:34;23.70;99.90
12111;DHT22;6119;52.372;8.990;2023-06-26T03:16:20;23.60;99.90
12111;DHT22;6119;52.372;8.990;2023-06-26T03:19:08;23.60;99.90
12111;DHT22;6119;52.372;8.990;2023-06-26T03:21:54;23.50;99.90
12111;DHT22;6119;52.372;8.990;2023-06-26T03:24:44;23.50;99.90
12111;DHT22;6119;52.372;8.990;2023-06-26T03:27:30;23.50;99.90
12111;DHT22;6119;52.372;8.990;2023-06-26T03:30:17;23.40;99.90
12111;DHT22;6119;52.372;8.990;2023-06-26T03:33:03;23.40;99.90
12111;DHT22;6119;52.372;8.990;2023-06-26T03:35:50;23.40;99.90
12111;DHT22;6119;52.372;8.990;2023-06-26T03:38:36;23.40;99.90
12111;DHT22;6119;52.372;8.990;2023-06-26T03:41:24;23.40;99.90
12111;DHT22;6119;52.372;8.990;2023-06-26T03:44:10;23.40;99.90
12111;DHT22;6119;52.372;8.990;2023-06-26T03:46:57;23.40;99.90
12111;DHT22;6119;52.372;8.990;2023-06-26T03:49:44;23.40;99.90
12111;DHT22;6119;52.372;8.990;2023-06-26T03:52:30;23.40;99.90
12111;DHT22;6119;52.372;8.990;2023-06-26T03:55:17;23.40;99.90
12111;DHT22;6119;52.372;8.990;2023-06-26T03:58:06;23.40;99.90
12111;DHT22;6119;52.372;8.990;2023-06-26T04:00:52;23.40;99.90
12111;DHT22;6119;52.372;8.990;2023-06-26T04:03:40;23.40;99.90
12111;DHT22;6119;52.372;8.990;2023-06-26T04:06:27;23.40;99.90
12111;DHT22;6119;52.372;8.990;2023-06-26T04:09:17;23.40;99.90
12111;DHT22;6119;52.372;8.990;2023-06-26T04:12:05;23.50;99.90
12111;DHT22;6119;52.372;8.990;2023-06-26T04:14:53;23.50;99.90
12111;DHT22;6119;52.372;8.990;2023-06-26T04:17:40;23.50;99.90
12111;DHT22;6119;52.372;8.990;2023-06-26T04:20:27;23.50;99.90
12111;DHT22;6119;52.372;8.990;2023-06-26T04:23:13;23.50;99.90
12111;DHT22;6119;52.372;8.990;2023-06-26T04:26:00;23.50;99.90
12111;DHT22;6119;52.372;8.990;2023-06-26T04:28:47;23.50;99.90
12111;DHT22;6119;52.372;8.990;2023-06-26T04:31:35;23.60;99.90
12111;DHT22;6119;52.372;8.990;2023-06-26T04:34:22;23.60;99.90
12111;DHT22;6119;52.372;8.990;2023-06-26T04:37:08;23.60;99.90
12111;DHT22;6119;52.372;8.990;2023-06-26T04:39:55;23.60;99.90
12111;DHT22;6119;52.372;8.990;2023-06-26T04:42:42;23.60;99.90
12111;DHT22;6119;52.372;8.990;2023-06-26T04:45:28;23.70;99.90
12111;DHT22;6119;52.372;8.990;2023-06-26T04:48:16;23.70;99.90
12111;DHT22;6119;52.372;8.990;2023-06-26T04:51:03;23.70;99.90
12111;DHT22;6119;52.372;8.990;2023-06-26T04:53:49;23.70;99.90
12111;DHT22;6119;52.372;8.990;2023-06-26T04:56:36;23.70;99.90
12111;DHT22;6119;52.372;8.990;2023-06-26T04:59:25;23.70;99.90
12111;DHT22;6119;52.372;8.990;2023-06-26T05:02:12;23.80;99.90
12111;DHT22;6119;52.372;8.990;2023-06-26T05:05:02;23.70;99.90
12111;DHT22;6119;52.372;8.990;2023-06-26T05:07:49;23.80;99.90
12111;DHT22;6119;52.372;8.990;2023-06-26T05:10:35;23.80;99.90
12111;DHT22;6119;52.372;8.990;2023-06-26T05:13:23;23.80;99.90
12111;DHT22;6119;52.372;8.990;2023-06-26T05:16:09;23.90;99.90
12111;DHT22;6119;52.372;8.990;2023-06-26T05:18:56;23.70;99.90
12111;DHT22;6119;52.372;8.990;2023-06-26T05:21:44;24.00;99.90
12111;DHT22;6119;52.372;8.990;2023-06-26T05:24:31;24.00;99.90
12111;DHT22;6119;52.372;8.990;2023-06-26T05:27:18;24.00;99.90
12111;DHT22;6119;52.372;8.990;2023-06-26T05:30:08;24.10;99.90
12111;DHT22;6119;52.372;8.990;2023-06-26T05:32:55;24.20;99.90
12111;DHT22;6119;52.372;8.990;2023-06-26T05:35:43;24.20;99.90
12111;DHT22;6119;52.372;8.990;2023-06-26T05:38:33;24.30;99.90
12111;DHT22;6119;52.372;8.990;2023-06-26T05:41:20;24.40;99.90
12111;DHT22;6119;52.372;8.990;2023-06-26T05:44:07;24.40;99.90
12111;DHT22;6119;52.372;8.990;2023-06-26T05:46:53;24.50;99.90
12111;DHT22;6119;52.372;8.990;2023-06-26T05:49:40;24.50;99.90
12111;DHT22;6119;52.372;8.990;2023-06-26T05:52:27;24.50;99.90
12111;DHT22;6119;52.372;8.990;2023-06-26T05:55:16;24.60;99.90
12111;DHT22;6119;52.372;8.990;2023-06-26T05:58:03;24.60;99.90
12111;DHT22;6119;52.372;8.990;2023-06-26T06:00:50;24.70;99.90
12111;DHT22;6119;52.372;8.990;2023-06-26T06:03:36;24.70;99.90
12111;DHT22;6119;52.372;8.990;2023-06-26T06:06:23;24.80;99.90
12111;DHT22;6119;52.372;8.990;2023-06-26T06:09:09;24.80;99.90
12111;DHT22;6119;52.372;8.990;2023-06-26T06:11:58;24.80;99.90
12111;DHT22;6119;52.372;8.990;2023-06-26T06:14:46;24.80;99.90
12111;DHT22;6119;52.372;8.990;2023-06-26T06:17:33;24.90;99.90
12111;DHT22;6119;52.372;8.990;2023-06-26T06:20:20;25.00;99.90
12111;DHT22;6119;52.372;8.990;2023-06-26T06:23:07;25.00;99.90
12111;DHT22;6119;52.372;8.990;2023-06-26T06:25:53;25.10;99.90
12111;DHT22;6119;52.372;8.990;2023-06-26T06:28:41;25.10;99.90
12111;DHT22;6119;52.372;8.990;2023-06-26T06:31:28;25.20;99.90
12111;DHT22;6119;52.372;8.990;2023-06-26T06:34:14;25.20;99.90
12111;DHT22;6119;52.372;8.990;2023-06-26T06:37:02;25.30;99.90
12111;DHT22;6119;52.372;8.990;2023-06-26T06:39:48;25.30;99.90
12111;DHT22;6119;52.372;8.990;2023-06-26T06:42:35;25.30;99.90
12111;DHT22;6119;52.372;8.990;2023-06-26T06:45:23;25.30;99.90
12111;DHT22;6119;52.372;8.990;2023-06-26T06:48:10;25.40;99.90
12111;DHT22;6119;52.372;8.990;2023-06-26T06:50:56;25.30;99.90
12111;DHT22;6119;52.372;8.990;2023-06-26T06:53:43;25.30;99.90
12111;DHT22;6119;52.372;8.990;2023-06-26T06:56:29;25.40;99.90
12111;DHT22;6119;52.372;8.990;2023-06-26T06:59:16;25.40;99.90
12111;DHT22;6119;52.372;8.990;2023-06-26T07:02:05;25.50;99.90
12111;DHT22;6119;52.372;8.990;2023-06-26T07:04:52;25.50;99.90
12111;DHT22;6119;52.372;8.990;2023-06-26T07:07:39;25.50;99.90
12111;DHT22;6119;52.372;8.990;2023-06-26T07:10:26;25.60;99.90
12111;DHT22;6119;52.372;8.990;2023-06-26T07:13:12;25.60;99.90
12111;DHT22;6119;52.372;8.990;2023-06-26T07:15:59;25.70;99.90
12111;DHT22;6119;52.372;8.990;2023-06-26T07:18:47;25.60;99.90
12111;DHT22;6119;52.372;8.990;2023-06-26T07:21:35;25.70;99.90
12111;DHT22;6119;52.372;8.990;2023-06-26T07:24:21;25.70;99.90
12111;DHT22;6119;52.372;8.990;2023-06-26T07:27:08;25.70;99.90
12111;DHT22;6119;52.372;8.990;2023-06-26T07:29:54;25.80;99.90
12111;DHT22;6119;52.372;8.990;2023-06-26T07:32:41;25.80;99.90
12111;DHT22;6119;52.372;8.990;2023-06-26T07:35:29;25.80;99.90
12111;DHT22;6119;52.372;8.990;2023-06-26T07:38:16;26.00;99.90
12111;DHT22;6119;52.372;8.990;2023-06-26T07:41:02;26.00;99.90
12111;DHT22;6119;52.372;8.990;2023-06-26T07:43:48;25.90;99.90
12111;DHT22;6119;52.372;8.990;2023-06-26T07:46:35;25.90;99.90
12111;DHT22;6119;52.372;8.990;2023-06-26T07:49:22;26.00;99.90
12111;DHT22;6119;52.372;8.990;2023-06-26T07:52:10;26.10;99.90
12111;DHT22;6119;52.372;8.990;2023-06-26T07:54:57;26.10;99.90
12111;DHT22;6119;52.372;8.990;2023-06-26T07:57:44;26.10;99.90
12111;DHT22;6119;52.372;8.990;2023-06-26T08:00:31;26.00;99.90
12111;DHT22;6119;52.372;8.990;2023-06-26T08:03:18;26.10;99.90
12111;DHT22;6119;52.372;8.990;2023-06-26T08:06:19;26.10;99.90
12111;DHT22;6119;52.372;8.990;2023-06-26T08:09:07;26.20;99.90
12111;DHT22;6119;52.372;8.990;2023-06-26T08:11:54;26.20;99.90
12111;DHT22;6119;52.372;8.990;2023-06-26T08:14:41;26.20;99.90
12111;DHT22;6119;52.372;8.990;2023-06-26T08:17:27;26.30;99.90
12111;DHT22;6119;52.372;8.990;2023-06-26T08:20:14;26.40;99.90
12111;DHT22;6119;52.372;8.990;2023-06-26T08:23:01;26.40;99.90
12111;DHT22;6119;52.372;8.990;2023-06-26T08:25:49;26.40;99.90
12111;DHT22;6119;52.372;8.990;2023-06-26T08:28:35;26.40;99.90
12111;DHT22;6119;52.372;8.990;2023-06-26T08:31:22;26.50;99.90
12111;DHT22;6119;52.372;8.990;2023-06-26T08:34:09;26.70;99.90
12111;DHT22;6119;52.372;8.990;2023-06-26T08:36:55;26.60;99.90
12111;DHT22;6119;52.372;8.990;2023-06-26T08:39:42;26.50;99.90
12111;DHT22;6119;52.372;8.990;2023-06-26T08:42:30;26.60;99.90
12111;DHT22;6119;52.372;8.990;2023-06-26T08:45:17;26.30;99.90
12111;DHT22;6119;52.372;8.990;2023-06-26T08:48:08;26.30;99.90
12111;DHT22;6119;52.372;8.990;2023-06-26T08:50:55;26.40;99.90
12111;DHT22;6119;52.372;8.990;2023-06-26T08:53:50;26.50;99.90
12111;DHT22;6119;52.372;8.990;2023-06-26T08:56:41;26.40;99.90
12111;DHT22;6119;52.372;8.990;2023-06-26T08:59:29;26.40;99.90
12111;DHT22;6119;52.372;8.990;2023-06-26T09:02:17;26.40;99.90
12111;DHT22;6119;52.372;8.990;2023-06-26T09:05:04;26.20;99.90
12111;DHT22;6119;52.372;8.990;2023-06-26T09:07:51;25.80;99.90
12111;DHT22;6119;52.372;8.990;2023-06-26T09:10:43;26.00;99.90
12111;DHT22;6119;52.372;8.990;2023-06-26T09:13:31;25.90;99.90
12111;DHT22;6119;52.372;8.990;2023-06-26T09:16:24;25.30;99.90
12111;DHT22;6119;52.372;8.990;2023-06-26T09:19:12;25.10;99.90
12111;DHT22;6119;52.372;8.990;2023-06-26T09:21:59;25.00;99.90
12111;DHT22;6119;52.372;8.990;2023-06-26T09:24:46;25.00;99.90
12111;DHT22;6119;52.372;8.990;2023-06-26T09:27:33;24.60;99.90
12111;DHT22;6119;52.372;8.990;2023-06-26T09:30:20;24.50;99.90
12111;DHT22;6119;52.372;8.990;2023-06-26T09:33:15;24.30;99.90
12111;DHT22;6119;52.372;8.990;2023-06-26T09:36:05;24.50;99.90
12111;DHT22;6119;52.372;8.990;2023-06-26T09:38:52;24.60;99.90
12111;DHT22;6119;52.372;8.990;2023-06-26T09:41:41;24.70;99.90
12111;DHT22;6119;52.372;8.990;2023-06-26T09:44:30;24.80;99.90
12111;DHT22;6119;52.372;8.990;2023-06-26T09:47:18;25.00;99.90
12111;DHT22;6119;52.372;8.990;2023-06-26T09:50:21;25.00;99.90
12111;DHT22;6119;52.372;8.990;2023-06-26T09:53:08;25.20;99.90
12111;DHT22;6119;52.372;8.990;2023-06-26T09:55:56;25.40;99.90
12111;DHT22;6119;52.372;8.990;2023-06-26T09:58:42;25.60;99.90
12111;DHT22;6119;52.372;8.990;2023-06-26T10:01:30;25.50;99.90
12111;DHT22;6119;52.372;8.990;2023-06-26T10:04:18;25.50;99.90
12111;DHT22;6119;52.372;8.990;2023-06-26T10:07:11;25.00;99.90
12111;DHT22;6119;52.372;8.990;2023-06-26T10:09:58;24.70;99.90
12111;DHT22;6119;52.372;8.990;2023-06-26T10:12:49;24.70;99.90
12111;DHT22;6119;52.372;8.990;2023-06-26T10:15:38;25.20;99.90
12111;DHT22;6119;52.372;8.990;2023-06-26T10:18:26;25.70;99.90
12111;DHT22;6119;52.372;8.990;2023-06-26T10:21:14;25.60;99.90
12111;DHT22;6119;52.372;8.990;2023-06-26T10:24:03;25.30;99.90
12111;DHT22;6119;52.372;8.990;2023-06-26T10:26:54;25.00;99.90
12111;DHT22;6119;52.372;8.990;2023-06-26T10:29:44;24.70;99.90
12111;DHT22;6119;52.372;8.990;2023-06-26T10:32:32;24.60;99.90
12111;DHT22;6119;52.372;8.990;2023-06-26T10:35:20;24.60;99.90
12111;DHT22;6119;52.372;8.990;2023-06-26T10:38:07;24.70;99.90
12111;DHT22;6119;52.372;8.990;2023-06-26T10:40:55;24.70;99.90
12111;DHT22;6119;52.372;8.990;2023-06-26T10:43:42;25.00;99.90
12111;DHT22;6119;52.372;8.990;2023-06-26T10:46:33;24.70;99.90
12111;DHT22;6119;52.372;8.990;2023-06-26T10:49:20;24.60;99.90
12111;DHT22;6119;52.372;8.990;2023-06-26T10:52:07;24.60;99.90
12111;DHT22;6119;52.372;8.990;2023-06-26T10:54:55;24.50;99.90
12111;DHT22;6119;52.372;8.990;2023-06-26T10:57:46;24.50;99.90
12111;DHT22;6119;52.372;8.990;2023-06-26T11:00:35;24.60;99.90
12111;DHT22;6119;52.372;8.990;2023-06-26T11:03:26;24.60;99.90
12111;DHT22;6119;52.372;8.990;2023-06-26T11:06:20;24.60;99.90
12111;DHT22;6119;52.372;8.990;2023-06-26T11:09:10;24.70;99.90
12111;DHT22;6119;52.372;8.990;2023-06-26T11:12:00;24.90;99.90
12111;DHT22;6119;52.372;8.990;2023-06-26T11:14:55;25.10;99.90
12111;DHT22;6119;52.372;8.990;2023-06-26T11:17:42;25.10;99.90
12111;DHT22;6119;52.372;8.990;2023-06-26T11:20:29;24.80;99.90
12111;DHT22;6119;52.372;8.990;2023-06-26T11:23:21;25.00;99.90
12111;DHT22;6119;52.372;8.990;2023-06-26T11:26:16;25.40;99.90
12111;DHT22;6119;52.372;8.990;2023-06-26T11:29:02;25.30;99.90
12111;DHT22;6119;52.372;8.990;2023-06-26T11:31:58;25.10;99.90
12111;DHT22;6119;52.372;8.990;2023-06-26T11:34:49;25.00;99.90
12111;DHT22;6119;52.372;8.990;2023-06-26T11:37:36;25.30;99.90
12111;DHT22;6119;52.372;8.990;2023-06-26T11:40:23;25.40;99.90
12111;DHT22;6119;52.372;8.990;2023-06-26T11:43:12;25.80;99.90
12111;DHT22;6119;52.372;8.990;2023-06-26T11:45:59;26.00;99.90
12111;DHT22;6119;52.372;8.990;2023-06-26T11:48:47;26.10;99.90
12111;DHT22;6119;52.372;8.990;2023-06-26T11:51:35;26.00;99.90
12111;DHT22;6119;52.372;8.990;2023-06-26T11:54:26;26.10;99.90
12111;DHT22;6119;52.372;8.990;2023-06-26T11:57:14;26.20;99.90
12111;DHT22;6119;52.372;8.990;2023-06-26T12:00:11;26.30;99.90
12111;DHT22;6119;52.372;8.990;2023-06-26T12:02:57;26.90;99.90
12111;DHT22;6119;52.372;8.990;2023-06-26T12:05:46;26.50;99.90
12111;DHT22;6119;52.372;8.990;2023-06-26T12:08:33;26.60;99.90
12111;DHT22;6119;52.372;8.990;2023-06-26T12:11:21;26.90;99.90
12111;DHT22;6119;52.372;8.990;2023-06-26T12:14:10;27.20;99.90
12111;DHT22;6119;52.372;8.990;2023-06-26T12:17:04;27.20;99.90
12111;DHT22;6119;52.372;8.990;2023-06-26T12:19:53;26.90;99.50
12111;DHT22;6119;52.372;8.990;2023-06-26T12:22:41;26.90;98.70
12111;DHT22;6119;52.372;8.990;2023-06-26T12:25:28;26.90;98.90
12111;DHT22;6119;52.372;8.990;2023-06-26T12:28:16;26.90;98.10
12111;DHT22;6119;52.372;8.990;2023-06-26T12:31:13;26.90;96.60
12111;DHT22;6119;52.372;8.990;2023-06-26T12:34:01;27.10;98.40
12111;DHT22;6119;52.372;8.990;2023-06-26T12:36:50;26.90;99.10
12111;DHT22;6119;52.372;8.990;2023-06-26T12:39:48;26.60;98.10
12111;DHT22;6119;52.372;8.990;2023-06-26T12:42:34;26.50;99.30
12111;DHT22;6119;52.372;8.990;2023-06-26T12:45:21;26.60;98.60
12111;DHT22;6119;52.372;8.990;2023-06-26T12:48:17;26.70;97.20
12111;DHT22;6119;52.372;8.990;2023-06-26T12:51:08;27.40;97.70
12111;DHT22;6119;52.372;8.990;2023-06-26T12:53:55;27.40;96.90
12111;DHT22;6119;52.372;8.990;2023-06-26T12:56:43;27.30;96.70
12111;DHT22;6119;52.372;8.990;2023-06-26T12:59:29;27.00;96.20
12111;DHT22;6119;52.372;8.990;2023-06-26T13:02:16;27.10;97.00
12111;DHT22;6119;52.372;8.990;2023-06-26T13:05:03;26.90;97.10
12111;DHT22;6119;52.372;8.990;2023-06-26T13:07:50;26.90;96.70
12111;DHT22;6119;52.372;8.990;2023-06-26T13:10:36;26.80;96.60
12111;DHT22;6119;52.372;8.990;2023-06-26T13:13:25;26.90;95.70
12111;DHT22;6119;52.372;8.990;2023-06-26T13:16:11;27.10;94.40
12111;DHT22;6119;52.372;8.990;2023-06-26T13:18:59;27.20;94.10
12111;DHT22;6119;52.372;8.990;2023-06-26T13:21:46;27.10;93.90
12111;DHT22;6119;52.372;8.990;2023-06-26T13:24:33;27.10;95.30
12111;DHT22;6119;52.372;8.990;2023-06-26T13:27:19;26.80;94.90
12111;DHT22;6119;52.372;8.990;2023-06-26T13:30:08;26.00;95.20
12111;DHT22;6119;52.372;8.990;2023-06-26T13:32:55;26.50;96.20
12111;DHT22;6119;52.372;8.990;2023-06-26T13:35:42;26.50;95.80
12111;DHT22;6119;52.372;8.990;2023-06-26T13:38:29;26.50;96.60
12111;DHT22;6119;52.372;8.990;2023-06-26T13:41:15;27.00;96.60
12111;DHT22;6119;52.372;8.990;2023-06-26T13:44:02;27.00;95.60
12111;DHT22;6119;52.372;8.990;2023-06-26T13:47:12;27.10;95.00
12111;DHT22;6119;52.372;8.990;2023-06-26T13:49:59;27.30;96.30
12111;DHT22;6119;52.372;8.990;2023-06-26T13:52:46;27.10;94.80
12111;DHT22;6119;52.372;8.990;2023-06-26T13:55:33;26.70;95.30
12111;DHT22;6119;52.372;8.990;2023-06-26T13:58:19;26.50;95.80
12111;DHT22;6119;52.372;8.990;2023-06-26T14:01:09;26.90;96.20
12111;DHT22;6119;52.372;8.990;2023-06-26T14:03:57;27.20;95.60
12111;DHT22;6119;52.372;8.990;2023-06-26T14:06:45;26.60;95.00
12111;DHT22;6119;52.372;8.990;2023-06-26T14:09:32;26.10;96.10
12111;DHT22;6119;52.372;8.990;2023-06-26T14:12:18;25.80;95.40
12111;DHT22;6119;52.372;8.990;2023-06-26T14:15:06;26.00;95.90
12111;DHT22;6119;52.372;8.990;2023-06-26T14:17:52;26.20;96.20
12111;DHT22;6119;52.372;8.990;2023-06-26T14:20:42;26.30;95.30
12111;DHT22;6119;52.372;8.990;2023-06-26T14:23:29;26.50;95.90
12111;DHT22;6119;52.372;8.990;2023-06-26T14:26:15;26.80;95.20
12111;DHT22;6119;52.372;8.990;2023-06-26T14:29:02;26.30;94.30
12111;DHT22;6119;52.372;8.990;2023-06-26T14:31:49;26.70;94.50
12111;DHT22;6119;52.372;8.990;2023-06-26T14:34:39;26.60;94.80
12111;DHT22;6119;52.372;8.990;2023-06-26T14:37:30;27.10;93.40
12111;DHT22;6119;52.372;8.990;2023-06-26T14:40:16;26.40;93.90
12111;DHT22;6119;52.372;8.990;2023-06-26T14:43:03;26.40;93.80
12111;DHT22;6119;52.372;8.990;2023-06-26T14:45:50;25.90;93.80
12111;DHT22;6119;52.372;8.990;2023-06-26T14:48:37;26.10;93.80
12111;DHT22;6119;52.372;8.990;2023-06-26T14:51:24;26.30;93.90
12111;DHT22;6119;52.372;8.990;2023-06-26T14:54:12;26.80;93.70
12111;DHT22;6119;52.372;8.990;2023-06-26T14:56:59;27.10;93.10
12111;DHT22;6119;52.372;8.990;2023-06-26T14:59:46;26.40;93.30
12111;DHT22;6119;52.372;8.990;2023-06-26T15:02:33;26.10;93.80
12111;DHT22;6119;52.372;8.990;2023-06-26T15:05:20;25.80;93.90
12111;DHT22;6119;52.372;8.990;2023-06-26T15:08:07;25.70;94.40
12111;DHT22;6119;52.372;8.990;2023-06-26T15:10:56;25.70;93.30
12111;DHT22;6119;52.372;8.990;2023-06-26T15:13:43;25.80;92.50
12111;DHT22;6119;52.372;8.990;2023-06-26T15:16:29;25.60;92.70
12111;DHT22;6119;52.372;8.990;2023-06-26T15:19:16;25.30;93.20
12111;DHT22;6119;52.372;8.990;2023-06-26T15:22:03;25.80;93.00
12111;DHT22;6119;52.372;8.990;2023-06-26T15:24:50;26.00;92.10
12111;DHT22;6119;52.372;8.990;2023-06-26T15:27:37;26.10;92.10
12111;DHT22;6119;52.372;8.990;2023-06-26T15:30:24;26.30;92.80
12111;DHT22;6119;52.372;8.990;2023-06-26T15:33:10;25.90;91.80
12111;DHT22;6119;52.372;8.990;2023-06-26T15:35:57;26.10;93.40
12111;DHT22;6119;52.372;8.990;2023-06-26T15:38:44;26.10;92.30
12111;DHT22;6119;52.372;8.990;2023-06-26T15:41:31;26.10;91.70
12111;DHT22;6119;52.372;8.990;2023-06-26T15:44:19;25.90;91.10
12111;DHT22;6119;52.372;8.990;2023-06-26T15:47:06;25.70;90.70
12111;DHT22;6119;52.372;8.990;2023-06-26T15:49:52;25.60;91.10
12111;DHT22;6119;52.372;8.990;2023-06-26T15:52:39;25.80;90.80
12111;DHT22;6119;52.372;8.990;2023-06-26T15:55:26;25.70;90.50
12111;DHT22;6119;52.372;8.990;2023-06-26T15:58:12;25.70;90.70
12111;DHT22;6119;52.372;8.990;2023-06-26T16:01:01;26.00;91.00
12111;DHT22;6119;52.372;8.990;2023-06-26T16:03:48;25.90;90.60
12111;DHT22;6119;52.372;8.990;2023-06-26T16:06:35;25.20;89.80
12111;DHT22;6119;52.372;8.990;2023-06-26T16:09:21;25.10;90.20
12111;DHT22;6119;52.372;8.990;2023-06-26T16:12:08;25.10;90.00
12111;DHT22;6119;52.372;8.990;2023-06-26T16:14:55;25.10;90.20
12111;DHT22;6119;52.372;8.990;2023-06-26T16:17:43;24.90;89.40
12111;DHT22;6119;52.372;8.990;2023-06-26T16:20:30;24.90;90.20
12111;DHT22;6119;52.372;8.990;2023-06-26T16:23:17;24.90;90.40
12111;DHT22;6119;52.372;8.990;2023-06-26T16:26:07;25.00;91.30
12111;DHT22;6119;52.372;8.990;2023-06-26T16:28:53;25.00;91.70
12111;DHT22;6119;52.372;8.990;2023-06-26T16:31:40;24.80;92.50
12111;DHT22;6119;52.372;8.990;2023-06-26T16:34:28;25.00;92.70
12111;DHT22;6119;52.372;8.990;2023-06-26T16:37:15;25.00;92.80
12111;DHT22;6119;52.372;8.990;2023-06-26T16:40:02;25.20;93.10
12111;DHT22;6119;52.372;8.990;2023-06-26T16:42:48;25.30;93.50
12111;DHT22;6119;52.372;8.990;2023-06-26T16:45:35;24.90;93.10
12111;DHT22;6119;52.372;8.990;2023-06-26T16:48:21;25.10;93.60
12111;DHT22;6119;52.372;8.990;2023-06-26T16:51:10;25.00;92.70
12111;DHT22;6119;52.372;8.990;2023-06-26T16:53:56;24.50;91.60
12111;DHT22;6119;52.372;8.990;2023-06-26T16:56:43;24.20;89.70
12111;DHT22;6119;52.372;8.990;2023-06-26T16:59:30;24.10;89.80
12111;DHT22;6119;52.372;8.990;2023-06-26T17:02:16;24.20;89.80
12111;DHT22;6119;52.372;8.990;2023-06-26T17:05:04;24.30;90.30
12111;DHT22;6119;52.372;8.990;2023-06-26T17:07:52;24.40;90.30
12111;DHT22;6119;52.372;8.990;2023-06-26T17:10:39;24.10;90.60
12111;DHT22;6119;52.372;8.990;2023-06-26T17:13:27;24.20;90.40
12111;DHT22;6119;52.372;8.990;2023-06-26T17:16:13;24.00;90.20
12111;DHT22;6119;52.372;8.990;2023-06-26T17:19:00;24.00;90.30
12111;DHT22;6119;52.372;8.990;2023-06-26T17:21:48;23.70;90.40
12111;DHT22;6119;52.372;8.990;2023-06-26T17:24:35;24.00;90.80
12111;DHT22;6119;52.372;8.990;2023-06-26T17:27:22;23.70;90.60
12111;DHT22;6119;52.372;8.990;2023-06-26T17:30:13;23.50;90.50
12111;DHT22;6119;52.372;8.990;2023-06-26T17:32:59;23.60;91.00
12111;DHT22;6119;52.372;8.990;2023-06-26T17:35:48;23.70;91.80
12111;DHT22;6119;52.372;8.990;2023-06-26T17:38:35;23.70;91.40
12111;DHT22;6119;52.372;8.990;2023-06-26T17:41:24;23.70;92.10
12111;DHT22;6119;52.372;8.990;2023-06-26T17:44:10;23.70;91.90
12111;DHT22;6119;52.372;8.990;2023-06-26T17:46:57;24.00;91.80
12111;DHT22;6119;52.372;8.990;2023-06-26T17:49:44;23.80;91.70
12111;DHT22;6119;52.372;8.990;2023-06-26T17:52:31;23.90;91.70
12111;DHT22;6119;52.372;8.990;2023-06-26T17:55:17;24.10;92.10
12111;DHT22;6119;52.372;8.990;2023-06-26T17:58:05;24.40;92.90